Time;durP1;ratioP1;P1;durP2;ratioP2;P2;SDS_P1;SDS_P2;PMS_P1;PMS_P2;Temp;Humidity;BMP_temperature;BMP_pressure;BME280_temperature;BME280_humidity;BME280_pressure;Samples;Min_cycle;Max_cycle;Signal;HPM_P1;HPM_P2
2022/06/22 00:02:07;;;;;;;7.70;4.60;;;;;;;14.35;95.46;95967.19;5046088;28;20507;-74
2022/06/22 00:04:43;;;;;;;6.57;3.77;;;;;;;14.45;93.80;95961.28;5030652;28;21041;-74
2022/06/22 00:07:17;;;;;;;5.20;4.30;;;;;;;14.17;92.62;95911.13;5038175;28;20425;-74
2022/06/22 00:09:44;;;;;;;10.13;5.40;;;;;;;14.31;94.80;95929.16;5051071;28;20488;-74
2022/06/22 00:12:25;;;;;;;7.80;4.20;;;;;;;14.42;95.05;95954.78;5019294;28;20430;-74
2022/06/22 00:14:55;;;;;;;7.03;3.83;;;;;;;14.26;96.22;95942.75;5033216;28;20537;-74
2022/06/22 00:17:37;;;;;;;5.40;3.97;;;;;;;14.40;93.27;95954.34;5026076;28;20509;-74
2022/06/22 00:20:26;;;;;;;6.57;4.77;;;;;;;14.44;93.19;95973.81;5031175;28;20491;-74
2022/06/22 00:23:13;;;;;;;6.00;4.53;;;;;;;14.40;94.51;95958.91;5031451;28;20977;-74
2022/06/22 00:25:41;;;;;;;9.70;4.30;;;;;;;14.54;94.57;95984.94;5042812;28;21318;-75
2022/06/22 00:28:32;;;;;;;6.63;5.00;;;;;;;14.17;96.93;95990.88;5048050;28;20521;-74
2022/06/22 00:31:20;;;;;;;11.93;5.30;;;;;;;13.95;98.29;95995.09;5040294;28;20893;-74
2022/06/22 00:34:09;;;;;;;10.60;4.17;;;;;;;14.05;98.70;96004.38;5031007;28;20434;-74
2022/06/22 00:37:04;;;;;;;7.33;3.50;;;;;;;13.68;100.00;95966.94;5030894;28;20466;-74
2022/06/22 00:39:31;;;;;;;6.50;3.20;;;;;;;14.22;98.78;95995.88;5044287;28;20485;-74
2022/06/22 00:42:21;;;;;;;8.33;3.87;;;;;;;14.29;97.57;95989.88;5032313;28;20528;-74
2022/06/22 00:44:58;;;;;;;15.07;5.23;;;;;;;14.18;99.00;95992.41;5013559;28;20453;-74
2022/06/22 00:47:37;;;;;;;9.57;3.37;;;;;;;13.91;100.00;95988.97;5030404;28;20438;-74
2022/06/22 00:50:06;;;;;;;7.43;4.10;;;;;;;13.59;100.00;95986.53;5032025;28;20448;-74
2022/06/22 00:52:40;;;;;;;6.33;4.60;;;;;;;13.70;100.00;95970.00;5049409;28;20471;-74
2022/06/22 00:55:40;;;;;;;10.67;4.27;;;;;;;13.86;100.00;95999.88;5037505;28;20564;-74
2022/06/22 00:58:21;;;;;;;8.50;3.57;;;;;;;13.71;100.00;96008.72;5021828;28;20784;-74
2022/06/22 01:01:13;;;;;;;8.63;4.60;;;;;;;13.48;100.00;95998.84;5017083;28;20462;-74
2022/06/22 01:03:54;;;;;;;8.53;4.30;;;;;;;13.21;100.00;95983.94;5034242;28;20444;-74
2022/06/22 01:06:29;;;;;;;8.03;4.73;;;;;;;12.79;100.00;95925.47;5021697;28;20444;-74
2022/06/22 01:09:36;;;;;;;7.53;3.83;;;;;;;13.39;100.00;95977.06;5018404;28;20417;-74
2022/06/22 01:12:17;;;;;;;9.00;4.70;;;;;;;13.18;100.00;95961.50;5024485;28;20552;-74
2022/06/22 01:14:52;;;;;;;8.67;5.00;;;;;;;13.47;100.00;95968.09;5030192;28;20513;-74
2022/06/22 01:17:51;;;;;;;5.20;4.20;;;;;;;13.41;100.00;95961.56;5030288;28;20968;-74
2022/06/22 01:20:40;;;;;;;4.50;3.47;;;;;;;13.15;100.00;95942.84;4992400;28;20455;-74
2022/06/22 01:23:49;;;;;;;4.07;3.67;;;;;;;12.47;100.00;95916.91;5013562;28;20474;-74
2022/06/22 01:26:46;;;;;;;7.40;4.03;;;;;;;12.57;100.00;95966.75;4990070;28;20517;-74
2022/06/22 01:29:22;;;;;;;12.27;4.97;;;;;;;12.61;100.00;95960.38;5033494;28;20949;-74
2022/06/22 01:32:12;;;;;;;13.97;5.00;;;;;;;12.93;100.00;95963.66;5030223;28;20512;-74
2022/06/22 01:34:44;;;;;;;7.57;4.40;;;;;;;13.00;100.00;95957.75;5029770;28;20434;-74
2022/06/22 01:37:20;;;;;;;6.80;3.90;;;;;;;13.16;100.00;95969.03;5029747;28;20505;-74
2022/06/22 01:39:47;;;;;;;5.83;3.50;;;;;;;13.36;100.00;95961.84;5018411;28;20477;-74
2022/06/22 01:42:38;;;;;;;17.70;6.50;;;;;;;12.58;100.00;95915.22;5043113;28;20548;-74
2022/06/22 01:45:25;;;;;;;9.90;4.83;;;;;;;12.41;100.00;95954.28;5031419;28;20445;-74
2022/06/22 01:48:03;;;;;;;13.93;7.50;;;;;;;12.48;100.00;95955.56;5013447;28;20576;-74
2022/06/22 01:50:48;;;;;;;27.43;7.53;;;;;;;12.19;100.00;95949.66;5029673;28;20466;-74
2022/06/22 01:53:24;;;;;;;22.37;7.13;;;;;;;12.52;100.00;95957.16;5029653;28;20442;-74
2022/06/22 01:55:59;;;;;;;22.23;7.57;;;;;;;12.63;100.00;95962.69;5035511;28;20444;-74
2022/06/22 01:58:39;;;;;;;31.13;8.57;;;;;;;12.74;100.00;95953.06;5036406;28;20445;-74
2022/06/22 02:01:19;;;;;;;21.87;6.23;;;;;;;12.75;100.00;95961.78;5029629;28;20485;-74
2022/06/22 02:04:01;;;;;;;20.40;7.60;;;;;;;12.88;100.00;95957.88;5029714;28;21161;-74
2022/06/22 02:09:28;;;;;;;19.63;6.30;;;;;;;11.73;100.00;95922.81;5019899;28;20999;-74
2022/06/22 02:14:48;;;;;;;10.60;6.00;;;;;;;12.16;100.00;95913.22;5029755;28;20496;-74
2022/06/22 02:17:20;;;;;;;23.40;8.10;;;;;;;12.22;100.00;95940.22;5031341;28;20819;-74
2022/06/22 02:20:18;;;;;;;28.57;5.67;;;;;;;12.48;100.00;95948.38;5031631;28;20454;-74
2022/06/22 02:22:47;;;;;;;17.00;6.67;;;;;;;12.38;100.00;95936.41;5044531;28;20465;-74
2022/06/22 02:25:17;;;;;;;9.07;5.40;;;;;;;12.28;100.00;95926.34;5030036;28;20815;-75
2022/06/22 02:27:43;;;;;;;18.93;6.37;;;;;;;12.15;100.00;95948.78;5013912;28;20443;-74
2022/06/22 02:30:11;;;;;;;13.47;5.60;;;;;;;12.00;100.00;95947.69;5033459;28;21169;-74
2022/06/22 02:32:41;;;;;;;21.93;8.37;;;;;;;12.20;100.00;95943.22;5034828;28;20842;-74
2022/06/22 02:35:11;;;;;;;13.53;6.27;;;;;;;12.05;100.00;95928.13;5033688;28;20422;-74
2022/06/22 02:37:42;;;;;;;12.13;5.50;;;;;;;11.88;100.00;95913.34;5046727;28;20858;-74
2022/06/22 02:40:21;;;;;;;18.43;6.53;;;;;;;12.29;100.00;95943.03;5033364;28;20496;-74
2022/06/22 02:45:41;;;;;;;13.97;5.40;;;;;;;12.33;100.00;95917.38;5039251;28;20415;-74
2022/06/22 02:48:33;;;;;;;8.80;5.97;;;;;;;12.53;100.00;95942.00;5033219;28;20426;-73
2022/06/22 02:51:13;;;;;;;7.10;5.13;;;;;;;11.95;100.00;95937.38;5033153;28;20461;-73
2022/06/22 02:53:41;;;;;;;7.87;5.80;;;;;;;11.11;100.00;95937.56;5016742;28;20557;-72
2022/06/22 02:56:15;;;;;;;12.67;7.80;;;;;;;11.07;100.00;95938.56;5032895;28;20496;-73
2022/06/22 02:58:44;;;;;;;7.60;5.00;;;;;;;11.49;100.00;95944.19;5014642;28;20524;-72
2022/06/22 03:01:18;;;;;;;16.13;5.80;;;;;;;11.23;100.00;95910.28;5032484;28;20497;-73
2022/06/22 03:03:53;;;;;;;5.83;5.20;;;;;;;11.34;100.00;95900.69;5016031;28;20448;-73
2022/06/22 03:06:26;;;;;;;10.40;5.40;;;;;;;11.29;100.00;95879.78;5032149;28;20523;-73
2022/06/22 03:08:55;;;;;;;13.43;6.10;;;;;;;11.43;100.00;95898.66;5033541;28;20426;-72
2022/06/22 03:11:22;;;;;;;9.60;6.27;;;;;;;11.68;100.00;95893.19;5032172;28;20456;-73
2022/06/22 03:13:54;;;;;;;10.47;6.03;;;;;;;11.93;100.00;95915.75;5031772;28;20906;-73
2022/06/22 03:16:29;;;;;;;13.87;5.67;;;;;;;12.06;100.00;95916.41;5032035;28;20422;-73
2022/06/22 03:19:04;;;;;;;4.87;4.47;;;;;;;12.19;100.00;95917.84;5031955;28;20544;-72
2022/06/22 03:21:31;;;;;;;4.77;4.23;;;;;;;12.09;100.00;95915.72;5015504;28;20476;-72
2022/06/22 03:24:18;;;;;;;4.57;4.17;;;;;;;11.88;100.00;95909.94;5031897;28;20536;-72
2022/06/22 03:26:52;;;;;;;4.60;4.20;;;;;;;11.53;100.00;95892.88;5031908;28;21016;-72
2022/06/22 03:29:34;;;;;;;4.27;3.97;;;;;;;11.67;100.00;95907.56;5028913;28;20471;-72
2022/06/22 03:32:43;;;;;;;4.00;3.70;;;;;;;12.04;100.00;95914.13;5051914;28;20910;-73
2022/06/22 03:35:20;;;;;;;4.60;4.20;;;;;;;11.92;100.00;95882.44;5041109;28;20438;-73
2022/06/22 03:37:49;;;;;;;6.90;4.50;;;;;;;12.19;100.00;95909.13;5051601;28;21011;-73
2022/06/22 03:40:24;;;;;;;4.87;4.50;;;;;;;12.13;100.00;95904.06;5051767;28;20449;-73
2022/06/22 03:42:54;;;;;;;9.97;6.03;;;;;;;12.19;100.00;95901.94;5051731;28;20457;-73
2022/06/22 03:45:30;;;;;;;14.27;6.07;;;;;;;12.34;100.00;95908.28;5051644;28;20545;-73
2022/06/22 03:48:36;;;;;;;4.20;3.80;;;;;;;12.20;100.00;95903.47;5051850;28;20448;-73
2022/06/22 03:51:09;;;;;;;4.87;4.00;;;;;;;11.71;100.00;95877.38;5052753;28;20472;-73
2022/06/22 03:53:48;;;;;;;17.57;6.03;;;;;;;11.67;100.00;95912.84;5051468;28;20476;-73
2022/06/22 03:56:19;;;;;;;11.80;5.17;;;;;;;11.84;100.00;95891.31;5051234;28;20568;-73
2022/06/22 03:58:50;;;;;;;9.50;5.00;;;;;;;12.03;100.00;95912.56;5051261;28;20827;-72
2022/06/22 04:01:18;;;;;;;14.97;5.40;;;;;;;12.30;100.00;95913.53;5034649;28;20457;-72
2022/06/22 04:03:45;;;;;;;5.07;4.47;;;;;;;12.38;100.00;95915.19;5051928;28;20460;-72
2022/06/22 04:06:34;;;;;;;7.60;5.03;;;;;;;12.33;100.00;95907.53;5051090;28;20673;-72
2022/06/22 04:09:07;;;;;;;7.30;5.47;;;;;;;12.37;100.00;95910.25;5051174;28;20836;-72
2022/06/22 04:11:51;;;;;;;14.03;5.40;;;;;;;12.59;100.00;95908.81;5034621;28;20485;-72
2022/06/22 04:14:35;;;;;;;16.33;5.20;;;;;;;12.77;100.00;95911.78;5052207;28;20441;-72
2022/06/22 04:17:08;;;;;;;9.80;5.07;;;;;;;12.89;100.00;95916.97;5037142;28;20466;-73
2022/06/22 04:19:40;;;;;;;6.40;4.60;;;;;;;12.98;100.00;95922.81;5012180;28;20459;-72
2022/06/22 04:22:18;;;;;;;8.67;5.00;;;;;;;12.72;100.00;95892.41;5030843;28;21300;-72
2022/06/22 04:24:58;;;;;;;8.23;4.77;;;;;;;12.98;100.00;95883.03;5014382;28;20430;-73
2022/06/22 04:27:27;;;;;;;6.93;4.63;;;;;;;13.07;100.00;95888.09;5030993;28;20430;-72
2022/06/22 04:30:07;;;;;;;11.57;5.47;;;;;;;13.67;100.00;95917.56;5026743;28;20557;-72
2022/06/22 04:33:04;;;;;;;5.57;5.07;;;;;;;13.71;100.00;95923.72;5031768;28;20917;-72
2022/06/22 04:36:03;;;;;;;6.00;5.40;;;;;;;13.64;100.00;95908.44;5050569;28;20441;-72
2022/06/22 04:38:36;;;;;;;11.70;4.90;;;;;;;13.84;100.00;95917.06;5042845;28;20444;-72
2022/06/22 04:41:19;;;;;;;12.97;4.87;;;;;;;14.10;100.00;95919.75;5050197;28;20561;-72
2022/06/22 04:43:47;;;;;;;13.10;6.40;;;;;;;14.08;100.00;95905.28;5033707;28;21050;-72
2022/06/22 04:46:25;;;;;;;6.80;4.67;;;;;;;14.44;100.00;95922.53;5050138;28;20507;-73
2022/06/22 04:48:56;;;;;;;7.10;5.10;;;;;;;14.42;100.00;95932.69;5050357;28;21227;-72
2022/06/22 04:51:28;;;;;;;5.47;5.07;;;;;;;14.62;100.00;95907.53;5049710;28;20476;-72
2022/06/22 04:54:02;;;;;;;11.23;4.07;;;;;;;14.88;100.00;95940.53;5050015;28;20429;-72
2022/06/22 04:56:36;;;;;;;8.23;4.30;;;;;;;14.93;100.00;95913.56;5050384;28;20468;-72
2022/06/22 04:59:06;;;;;;;13.20;4.43;;;;;;;15.16;100.00;95927.53;5050189;28;20487;-72
2022/06/22 05:01:40;;;;;;;5.23;4.73;;;;;;;15.36;100.00;95939.53;5051387;28;20483;-72
2022/06/22 05:04:18;;;;;;;11.60;5.50;;;;;;;15.08;100.00;95923.25;5050280;28;20441;-73
2022/06/22 05:06:45;;;;;;;13.10;5.30;;;;;;;14.72;100.00;95930.84;5049753;28;20536;-72
2022/06/22 05:09:31;;;;;;;8.40;4.60;;;;;;;14.75;100.00;95932.00;5033120;28;20784;-72
2022/06/22 05:12:00;;;;;;;4.50;4.03;;;;;;;14.73;100.00;95927.06;5049670;28;20429;-73
2022/06/22 05:14:30;;;;;;;4.20;3.90;;;;;;;14.69;100.00;95918.28;5033004;28;20511;-72
2022/06/22 05:17:04;;;;;;;4.67;3.80;;;;;;;14.89;100.00;95934.06;5049420;28;20507;-73
2022/06/22 05:19:44;;;;;;;5.90;3.67;;;;;;;14.99;100.00;95931.53;5033843;28;20972;-73
2022/06/22 05:22:13;;;;;;;6.90;3.60;;;;;;;15.79;100.00;95942.59;5049561;28;20461;-73
2022/06/22 05:24:45;;;;;;;5.63;4.50;;;;;;;15.82;100.00;95944.53;5033009;28;20978;-73
2022/06/22 05:27:19;;;;;;;8.80;4.63;;;;;;;15.92;100.00;95961.75;5029642;28;20450;-73
2022/06/22 05:29:51;;;;;;;6.53;3.30;;;;;;;15.97;100.00;95969.38;5025409;28;20481;-73
2022/06/22 05:32:30;;;;;;;9.30;4.50;;;;;;;15.80;100.00;95938.78;5029662;28;20458;-73
2022/06/22 05:34:59;;;;;;;4.90;3.70;;;;;;;15.84;100.00;95936.91;5029958;28;20438;-73
2022/06/22 05:37:32;;;;;;;3.83;3.33;;;;;;;16.37;100.00;95968.53;5030962;28;20459;-73
2022/06/22 05:39:59;;;;;;;6.27;2.77;;;;;;;16.34;95.09;95939.16;5029493;28;20462;-73
2022/06/22 05:42:29;;;;;;;3.40;3.20;;;;;;;16.91;91.17;95972.25;5029220;28;20528;-73
2022/06/22 05:44:56;;;;;;;3.87;3.23;;;;;;;16.97;87.13;95976.13;5013063;28;20560;-73
2022/06/22 05:47:32;;;;;;;4.07;3.77;;;;;;;16.86;87.43;95943.25;5029231;28;20492;-73
2022/06/22 05:50:08;;;;;;;3.17;2.97;;;;;;;16.93;84.65;95972.66;5030629;28;20860;-73
2022/06/22 05:52:47;;;;;;;5.37;3.10;;;;;;;16.92;84.95;95957.75;5029795;28;20507;-72
2022/06/22 05:55:28;;;;;;;5.67;3.30;;;;;;;17.13;85.08;95957.84;5030217;28;20477;-74
2022/06/22 05:58:05;;;;;;;5.13;3.57;;;;;;;17.46;84.23;95960.59;5032182;28;20446;-74
2022/06/22 06:00:42;;;;;;;6.47;4.17;;;;;;;17.48;81.81;95959.06;5031186;28;20465;-73
2022/06/22 06:03:22;;;;;;;4.90;2.90;;;;;;;17.80;80.33;95963.72;5031446;28;20833;-73
2022/06/22 06:05:53;;;;;;;5.17;3.80;;;;;;;17.90;79.92;95941.56;5035995;28;20988;-73
2022/06/22 06:08:36;;;;;;;3.60;3.40;;;;;;;18.15;78.05;95969.03;5037030;28;21232;-74
2022/06/22 06:11:06;;;;;;;4.20;2.93;;;;;;;18.67;77.31;95976.63;5055061;28;20873;-74
2022/06/22 06:13:38;;;;;;;4.40;2.90;;;;;;;18.50;75.18;95959.44;5053366;28;20457;-74
2022/06/22 06:16:14;;;;;;;3.63;3.30;;;;;;;18.69;74.61;95972.41;5053484;28;20506;-74
2022/06/22 06:18:45;;;;;;;4.50;3.17;;;;;;;18.63;74.36;95979.31;5048122;28;20434;-74
2022/06/22 06:21:21;;;;;;;3.40;2.73;;;;;;;18.61;72.90;95970.91;5016611;28;20569;-73
2022/06/22 06:24:00;;;;;;;7.50;3.20;;;;;;;18.86;72.66;95976.97;5034160;28;20508;-73
2022/06/22 06:29:42;;;;;;;3.20;2.90;;;;;;;19.03;69.91;95974.59;5033109;28;20568;-73
2022/06/22 06:32:25;;;;;;;3.70;3.00;;;;;;;18.87;70.90;95958.97;5036295;28;20440;-73
2022/06/22 06:35:02;;;;;;;3.97;3.27;;;;;;;19.11;71.52;95970.75;5052804;28;20916;-73
2022/06/22 06:37:47;;;;;;;3.07;2.93;;;;;;;19.44;70.43;95956.00;5036122;28;20840;-73
2022/06/22 06:40:22;;;;;;;2.57;2.37;;;;;;;19.82;68.20;95967.66;5052573;28;20901;-73
2022/06/22 06:43:13;;;;;;;3.57;3.27;;;;;;;19.61;68.01;95943.66;5052384;28;20472;-73
2022/06/22 06:45:41;;;;;;;3.57;2.93;;;;;;;19.73;68.77;95961.97;5036088;28;20438;-73
2022/06/22 06:48:25;;;;;;;3.00;2.70;;;;;;;19.44;69.77;95970.19;5036905;28;21003;-73
2022/06/22 06:50:56;;;;;;;3.13;2.57;;;;;;;19.44;69.46;95972.09;5052424;28;20864;-73
2022/06/22 06:53:57;;;;;;;2.83;2.40;;;;;;;19.47;70.29;95976.66;5052695;28;20479;-73
2022/06/22 06:56:32;;;;;;;3.10;2.83;;;;;;;19.78;68.42;95961.56;5052521;28;20425;-73
2022/06/22 06:59:03;;;;;;;3.00;2.80;;;;;;;20.31;67.31;95960.34;5053426;28;20482;-73
2022/06/22 07:01:33;;;;;;;3.10;2.90;;;;;;;20.57;66.88;95964.34;5055023;28;20479;-73
2022/06/22 07:04:15;;;;;;;2.97;2.63;;;;;;;20.73;65.61;95964.56;5052775;28;20912;-73
2022/06/22 07:06:44;;;;;;;2.70;2.23;;;;;;;20.90;63.68;95949.38;5052825;28;20421;-73
2022/06/22 07:09:17;;;;;;;4.07;3.03;;;;;;;20.56;65.05;95917.13;5036288;28;20438;-73
2022/06/22 07:11:51;;;;;;;3.03;2.83;;;;;;;20.54;64.94;95935.59;5052871;28;20453;-73
2022/06/22 07:14:23;;;;;;;3.40;2.90;;;;;;;21.30;64.15;95955.81;5052275;28;20498;-74
2022/06/22 07:16:54;;;;;;;4.03;2.73;;;;;;;21.42;62.99;95932.97;5054003;28;20421;-73
2022/06/22 07:19:39;;;;;;;3.87;2.33;;;;;;;21.69;61.99;95947.19;5037055;28;20461;-73
2022/06/22 07:22:12;;;;;;;3.40;3.10;;;;;;;21.50;62.35;95967.47;5054666;28;20433;-73
2022/06/22 07:24:48;;;;;;;3.27;2.17;;;;;;;21.18;62.70;95967.84;5035519;28;20461;-73
2022/06/22 07:27:15;;;;;;;2.60;2.50;;;;;;;21.58;62.84;95968.09;5032067;28;20855;-75
2022/06/22 07:29:50;;;;;;;3.87;3.20;;;;;;;21.95;62.44;95950.25;5032029;28;20523;-74
2022/06/22 07:32:38;;;;;;;3.50;3.07;;;;;;;22.32;60.36;95963.50;5051604;28;20445;-74
2022/06/22 07:35:15;;;;;;;3.80;2.87;;;;;;;22.17;60.14;95954.16;5021803;28;20430;-73
2022/06/22 07:38:12;;;;;;;4.13;2.50;;;;;;;22.57;59.64;95967.66;5031634;28;20530;-74
2022/06/22 07:41:18;;;;;;;3.23;2.30;;;;;;;22.38;59.07;95956.47;5015610;28;20549;-74
2022/06/22 07:43:30;;;;;;;3.77;2.70;;;;;;;22.51;58.94;95950.47;5031713;28;20462;-74
2022/06/22 07:45:56;;;;;;;4.70;3.03;;;;;;;22.81;58.23;95957.59;5015142;28;20565;-74
2022/06/22 07:48:26;;;;;;;3.97;2.60;;;;;;;22.57;57.79;95946.91;5031358;28;20434;-74
2022/06/22 07:50:56;;;;;;;4.00;2.50;;;;;;;22.66;58.36;95946.31;5031585;28;20476;-74
2022/06/22 07:53:29;;;;;;;3.47;2.67;;;;;;;23.09;57.04;95961.69;5031965;28;20445;-74
2022/06/22 07:56:09;;;;;;;3.47;2.80;;;;;;;23.40;55.41;95965.66;5031581;28;20465;-73
2022/06/22 07:58:48;;;;;;;3.20;2.17;;;;;;;23.95;54.66;95966.00;5031357;28;20952;-73
2022/06/22 08:01:20;;;;;;;2.80;2.40;;;;;;;23.70;54.94;95955.78;5015060;28;20458;-73
2022/06/22 08:03:53;;;;;;;2.90;2.70;;;;;;;23.75;54.38;95944.47;5014831;28;21029;-74
2022/06/22 08:06:49;;;;;;;3.07;2.63;;;;;;;23.75;54.15;95947.16;5032915;28;20426;-74
2022/06/22 08:09:21;;;;;;;4.30;2.80;;;;;;;23.98;53.49;95925.41;5031111;28;20878;-72
2022/06/22 08:12:05;;;;;;;2.70;2.50;;;;;;;24.20;52.73;95952.66;5014721;28;20434;-75
2022/06/22 08:14:43;;;;;;;2.77;2.57;;;;;;;24.41;52.43;95941.31;5031083;28;20588;-72
2022/06/22 08:17:40;;;;;;;9.47;2.80;;;;;;;24.51;52.06;95966.56;5032594;28;20500;-72
2022/06/22 08:20:10;;;;;;;2.93;2.63;;;;;;;24.93;51.35;95955.75;5031188;28;20494;-73
2022/06/22 08:22:37;;;;;;;2.87;2.60;;;;;;;24.76;50.68;95952.38;5031224;28;21016;-73
2022/06/22 08:25:06;;;;;;;2.77;2.47;;;;;;;25.04;49.38;95951.59;5030991;28;20870;-73
2022/06/22 08:27:34;;;;;;;5.53;2.63;;;;;;;24.85;49.16;95947.09;5030151;28;20550;-73
2022/06/22 08:30:02;;;;;;;3.20;2.60;;;;;;;25.13;49.24;95961.81;5036711;28;20467;-73
2022/06/22 08:32:33;;;;;;;6.23;2.70;;;;;;;24.67;49.36;95952.22;5025078;28;20493;-73
2022/06/22 08:35:26;;;;;;;3.10;2.10;;;;;;;24.98;48.73;95930.91;5030956;28;20818;-73
2022/06/22 08:38:01;;;;;;;3.40;2.93;;;;;;;24.50;49.83;95937.25;5030748;28;20434;-73
2022/06/22 08:40:52;;;;;;;2.60;2.40;;;;;;;24.55;48.99;95947.53;5030536;28;20462;-73
2022/06/22 08:43:28;;;;;;;2.70;2.50;;;;;;;24.86;48.62;95959.44;5047386;28;20454;-72
2022/06/22 08:46:43;;;;;;;4.60;2.53;;;;;;;25.30;47.68;95955.09;5043636;28;20739;-72
2022/06/22 08:49:13;;;;;;;2.20;2.00;;;;;;;25.56;47.84;95966.72;4989559;28;20449;-73
2022/06/22 08:51:40;;;;;;;2.40;2.20;;;;;;;25.48;48.26;95967.34;5010881;28;20439;-73
2022/06/22 08:54:15;;;;;;;3.90;2.80;;;;;;;25.49;47.19;95966.91;5030607;28;20466;-73
2022/06/22 08:56:58;;;;;;;2.73;2.53;;;;;;;25.12;46.90;95971.09;5030372;28;20433;-73
2022/06/22 08:59:34;;;;;;;3.13;2.50;;;;;;;25.85;46.79;95972.03;5031694;28;20496;-73
2022/06/22 09:02:17;;;;;;;2.97;2.40;;;;;;;25.70;45.36;95976.38;5032061;28;20918;-73
2022/06/22 09:04:51;;;;;;;3.00;2.80;;;;;;;24.99;47.17;95971.06;5030213;28;20466;-73
2022/06/22 09:07:20;;;;;;;2.13;1.80;;;;;;;25.53;45.27;95975.72;5031787;28;20430;-73
2022/06/22 09:10:18;;;;;;;2.40;2.30;;;;;;;25.49;46.69;95958.03;5030349;28;20465;-73
2022/06/22 09:13:06;;;;;;;9.60;2.50;;;;;;;26.17;46.65;95973.72;5030014;28;20535;-73
2022/06/22 09:15:49;;;;;;;4.73;2.60;;;;;;;26.34;45.76;95952.66;5031229;28;20851;-73
2022/06/22 09:18:32;;;;;;;2.80;2.07;;;;;;;26.35;44.55;95972.38;5029779;28;20496;-73
2022/06/22 09:21:10;;;;;;;3.10;2.43;;;;;;;26.42;44.85;95966.75;5030027;28;21071;-74
2022/06/22 09:23:55;;;;;;;2.50;2.27;;;;;;;25.75;45.71;95964.22;5013849;28;20454;-73
2022/06/22 09:26:36;;;;;;;2.73;2.50;;;;;;;26.66;45.21;95965.13;5013460;28;20430;-73
2022/06/22 09:29:44;;;;;;;3.53;2.30;;;;;;;26.00;45.56;95898.41;5028398;28;21998;-72
2022/06/22 09:32:29;;;;;;;7.70;2.50;;;;;;;26.18;46.52;95958.22;5023861;28;20471;-73
2022/06/22 09:35:08;;;;;;;3.20;2.93;;;;;;;25.78;46.82;95953.31;5017310;28;20504;-73
2022/06/22 09:37:55;;;;;;;4.70;3.00;;;;;;;26.00;47.57;95950.66;5031160;28;20831;-72
2022/06/22 09:40:45;;;;;;;3.03;2.83;;;;;;;26.20;46.04;95947.69;5013671;28;20955;-72
2022/06/22 09:43:49;;;;;;;3.60;3.00;;;;;;;26.62;45.92;95963.75;5013911;28;20462;-73
2022/06/22 09:46:36;;;;;;;2.87;2.67;;;;;;;26.80;44.97;95969.31;5016482;28;20829;-73
2022/06/22 09:49:30;;;;;;;4.67;3.50;;;;;;;27.43;44.81;95970.16;5014123;28;20545;-73
2022/06/22 09:52:38;;;;;;;3.50;3.20;;;;;;;27.81;44.33;95964.47;5031287;28;20842;-73
2022/06/22 09:58:33;;;;;;;3.40;3.13;;;;;;;27.90;44.06;95959.03;5037109;28;20759;-73
2022/06/22 10:01:13;;;;;;;3.00;2.70;;;;;;;28.60;43.35;95964.75;5049400;28;20499;-73
2022/06/22 10:04:08;;;;;;;2.80;2.60;;;;;;;28.42;43.84;95965.50;5049346;28;20457;-73
2022/06/22 10:07:02;;;;;;;4.50;3.30;;;;;;;27.31;44.73;95958.94;5049412;28;20441;-73
2022/06/22 10:10:13;;;;;;;5.83;3.50;;;;;;;27.59;44.59;95954.38;5033003;28;20464;-73
2022/06/22 10:13:39;;;;;;;3.47;3.17;;;;;;;27.26;45.33;95947.91;5031397;28;20498;-73
2022/06/22 10:16:11;;;;;;;8.00;4.10;;;;;;;27.52;45.04;95959.34;4995715;28;20446;-73
2022/06/22 10:19:04;;;;;;;3.53;3.20;;;;;;;27.96;45.08;95962.69;5050605;28;20450;-73
2022/06/22 10:21:56;;;;;;;5.20;3.70;;;;;;;27.43;44.82;95943.00;5033379;28;20763;-74
2022/06/22 10:24:23;;;;;;;6.70;3.03;;;;;;;27.58;44.91;95952.13;5035975;28;20458;-74
2022/06/22 10:26:56;;;;;;;5.40;3.40;;;;;;;28.22;44.60;95957.75;5031789;28;20436;-74
2022/06/22 10:29:22;;;;;;;3.43;3.10;;;;;;;29.13;43.47;95965.94;5027543;28;20506;-74
2022/06/22 10:31:52;;;;;;;3.10;2.83;;;;;;;29.01;43.40;95958.69;5032670;28;20457;-74
2022/06/22 10:34:34;;;;;;;4.10;3.67;;;;;;;28.98;43.51;95953.38;5031865;28;20517;-74
2022/06/22 10:37:21;;;;;;;4.33;3.57;;;;;;;28.82;42.69;95949.00;5014594;28;20446;-74
2022/06/22 10:39:59;;;;;;;6.43;3.90;;;;;;;28.11;43.98;95950.03;5033035;28;20446;-74
2022/06/22 10:45:53;;;;;;;4.00;3.20;;;;;;;27.08;45.42;95933.03;5050401;28;20500;-74
2022/06/22 10:48:29;;;;;;;5.40;4.13;;;;;;;27.27;45.48;95939.31;5031384;28;20431;-74
2022/06/22 10:51:11;;;;;;;7.47;4.20;;;;;;;27.37;45.63;95940.84;5052902;28;20464;-74
2022/06/22 10:54:02;;;;;;;3.60;3.30;;;;;;;27.85;45.26;95935.94;5041168;28;20438;-74
2022/06/22 10:56:29;;;;;;;3.87;3.57;;;;;;;29.07;44.35;95945.22;5034909;28;20464;-74
2022/06/22 10:59:33;;;;;;;4.33;3.57;;;;;;;30.03;43.77;95952.41;5035614;28;20938;-74
2022/06/22 11:02:48;;;;;;;3.93;3.50;;;;;;;28.71;44.24;95951.44;5035419;28;20445;-74
2022/06/22 11:05:57;;;;;;;4.57;3.93;;;;;;;28.95;44.08;95957.78;5034597;28;20521;-74
2022/06/22 11:08:43;;;;;;;4.87;3.67;;;;;;;29.39;44.28;95958.16;5028782;28;20433;-74
2022/06/22 11:11:25;;;;;;;4.10;3.80;;;;;;;29.49;43.19;95945.25;5054878;28;20457;-74
2022/06/22 11:14:16;;;;;;;4.77;4.33;;;;;;;29.33;43.39;95932.72;5055452;28;20441;-74
2022/06/22 11:17:19;;;;;;;3.50;3.23;;;;;;;30.46;42.64;95958.53;5042842;28;20913;-74
2022/06/22 11:20:01;;;;;;;5.20;3.83;;;;;;;30.36;42.45;95961.78;5055246;28;20473;-74
2022/06/22 11:22:35;;;;;;;9.17;5.53;;;;;;;29.52;42.75;95954.50;5055092;28;20448;-74
2022/06/22 11:25:16;;;;;;;3.93;3.73;;;;;;;28.47;44.90;95929.53;5041639;28;20461;-74
2022/06/22 11:31:08;;;;;;;4.23;3.73;;;;;;;26.89;47.19;95915.09;5044878;28;20836;-74
2022/06/22 11:33:44;;;;;;;4.37;4.03;;;;;;;27.83;45.98;95949.22;5028669;28;20525;-74
2022/06/22 11:36:48;;;;;;;4.63;3.60;;;;;;;27.37;47.50;95946.28;5018743;28;20519;-74
2022/06/22 11:39:57;;;;;;;5.30;3.97;;;;;;;27.10;47.30;95941.47;5053594;28;20560;-74
2022/06/22 11:42:55;;;;;;;4.20;3.90;;;;;;;27.77;46.70;95936.66;5014102;28;20435;-73
2022/06/22 11:45:51;;;;;;;4.70;4.30;;;;;;;27.90;45.82;95935.31;5021530;28;20458;-74
2022/06/22 11:49:03;;;;;;;4.70;4.30;;;;;;;28.10;46.02;95939.59;5040101;28;20457;-74
2022/06/22 11:51:55;;;;;;;4.60;4.10;;;;;;;27.58;46.79;95914.84;4996237;28;20428;-74
2022/06/22 11:54:25;;;;;;;4.83;4.37;;;;;;;27.71;46.79;95935.75;5003192;28;20522;-73
2022/06/22 11:57:00;;;;;;;4.47;4.10;;;;;;;27.88;46.86;95945.13;5009417;28;20979;-73
2022/06/22 11:59:30;;;;;;;4.33;3.87;;;;;;;28.03;46.82;95940.63;5017083;28;20454;-74
2022/06/22 12:02:29;;;;;;;4.67;3.43;;;;;;;28.36;46.24;95942.84;5034523;28;20431;-75
2022/06/22 12:05:03;;;;;;;4.37;3.90;;;;;;;28.20;46.33;95941.13;5030996;28;20469;-75
2022/06/22 12:07:51;;;;;;;4.83;4.00;;;;;;;27.92;46.10;95929.47;5035154;28;20468;-74
2022/06/22 12:10:18;;;;;;;3.93;3.63;;;;;;;27.77;46.57;95920.34;5037596;28;21022;-75
2022/06/22 12:13:19;;;;;;;4.80;4.40;;;;;;;27.91;46.53;95919.78;5037742;28;20511;-75
2022/06/22 12:15:48;;;;;;;5.70;3.87;;;;;;;27.87;46.79;95916.44;5015623;28;20403;-74
2022/06/22 12:18:24;;;;;;;5.00;4.60;;;;;;;28.23;45.76;95921.94;5016937;28;20914;-74
2022/06/22 12:21:15;;;;;;;4.50;4.10;;;;;;;28.75;45.08;95925.59;5035405;28;21060;-75
2022/06/22 12:24:03;;;;;;;5.17;4.33;;;;;;;29.84;44.15;95926.47;5023056;28;20425;-75
2022/06/22 12:26:40;;;;;;;7.03;4.27;;;;;;;30.47;43.56;95926.53;5033399;28;20442;-74
2022/06/22 12:29:14;;;;;;;4.70;4.27;;;;;;;30.48;43.08;95922.59;5033226;28;20942;-75
2022/06/22 12:31:49;;;;;;;7.70;4.43;;;;;;;30.34;43.27;95924.06;5040323;28;20491;-75
2022/06/22 12:34:52;;;;;;;5.47;4.93;;;;;;;29.54;43.63;95895.59;5046934;28;20431;-75
2022/06/22 12:37:25;;;;;;;4.10;3.80;;;;;;;29.43;43.23;95906.97;5046462;28;20500;-75
2022/06/22 12:40:00;;;;;;;5.00;4.20;;;;;;;29.21;44.08;95886.63;5031315;28;21014;-75
2022/06/22 12:42:55;;;;;;;9.77;4.70;;;;;;;29.00;43.85;95913.63;5032651;28;20911;-75
2022/06/22 12:45:53;;;;;;;9.30;5.20;;;;;;;28.56;44.48;95902.31;5032337;28;20466;-75
2022/06/22 12:48:47;;;;;;;4.33;4.03;;;;;;;28.43;44.43;95901.72;5006916;28;20485;-75
2022/06/22 12:51:27;;;;;;;10.50;4.47;;;;;;;28.52;45.55;95907.16;5019890;28;20484;-75